sensor_id;sensor_type;location;lat;lon;timestamp;pressure;altitude;pressure_sealevel;temperature;humidity
63556;BME280;49700;48.072;7.800;2023-05-14T00:01:41;99460.28;;;13.54;nan
63556;BME280;49700;48.072;7.800;2023-05-14T00:04:06;99449.34;;;13.47;nan
63556;BME280;49700;48.072;7.800;2023-05-14T00:06:31;99448.03;;;13.41;nan
63556;BME280;49700;48.072;7.800;2023-05-14T00:08:57;99437.97;;;13.35;nan
63556;BME280;49700;48.072;7.800;2023-05-14T00:11:22;99448.63;;;13.34;nan
63556;BME280;49700;48.072;7.800;2023-05-14T00:13:49;99442.66;;;13.32;nan
63556;BME280;49700;48.072;7.800;2023-05-14T00:16:14;99449.84;;;13.30;nan
63556;BME280;49700;48.072;7.800;2023-05-14T00:18:40;99445.53;;;13.28;nan
63556;BME280;49700;48.072;7.800;2023-05-14T00:21:05;99435.16;;;13.25;nan
63556;BME280;49700;48.072;7.800;2023-05-14T00:23:31;99437.47;;;13.19;nan
63556;BME280;49700;48.072;7.800;2023-05-14T00:25:56;99434.09;;;13.17;nan
63556;BME280;49700;48.072;7.800;2023-05-14T00:28:22;99440.19;;;13.17;nan
63556;BME280;49700;48.072;7.800;2023-05-14T00:30:47;99430.28;;;13.21;nan
63556;BME280;49700;48.072;7.800;2023-05-14T00:33:14;99426.56;;;13.23;nan
63556;BME280;49700;48.072;7.800;2023-05-14T00:35:39;99424.53;;;13.27;nan
63556;BME280;49700;48.072;7.800;2023-05-14T00:38:05;99427.19;;;13.27;nan
63556;BME280;49700;48.072;7.800;2023-05-14T00:40:30;99420.25;;;13.26;nan
63556;BME280;49700;48.072;7.800;2023-05-14T00:42:56;99423.44;;;13.18;nan
63556;BME280;49700;48.072;7.800;2023-05-14T00:45:21;99419.34;;;13.14;nan
63556;BME280;49700;48.072;7.800;2023-05-14T00:47:47;99421.38;;;13.11;nan
63556;BME280;49700;48.072;7.800;2023-05-14T00:50:14;99416.81;;;13.01;nan
63556;BME280;49700;48.072;7.800;2023-05-14T00:52:40;99428.31;;;12.89;nan
63556;BME280;49700;48.072;7.800;2023-05-14T00:55:06;99424.81;;;12.77;nan
63556;BME280;49700;48.072;7.800;2023-05-14T00:57:33;99418.66;;;12.66;nan
63556;BME280;49700;48.072;7.800;2023-05-14T00:59:59;99421.34;;;12.53;nan
63556;BME280;49700;48.072;7.800;2023-05-14T01:02:25;99417.63;;;12.44;nan
63556;BME280;49700;48.072;7.800;2023-05-14T01:04:51;99419.16;;;12.35;nan
63556;BME280;49700;48.072;7.800;2023-05-14T01:07:27;99428.56;;;12.27;nan
63556;BME280;49700;48.072;7.800;2023-05-14T01:10:31;99424.69;;;12.20;nan
63556;BME280;49700;48.072;7.800;2023-05-14T01:13:12;99422.41;;;12.15;nan
63556;BME280;49700;48.072;7.800;2023-05-14T01:15:38;99423.34;;;12.14;nan
63556;BME280;49700;48.072;7.800;2023-05-14T01:18:09;99418.22;;;12.12;nan
63556;BME280;49700;48.072;7.800;2023-05-14T01:20:35;99414.84;;;12.10;nan
63556;BME280;49700;48.072;7.800;2023-05-14T01:23:01;99419.28;;;12.10;nan
63556;BME280;49700;48.072;7.800;2023-05-14T01:25:28;99416.75;;;12.08;nan
63556;BME280;49700;48.072;7.800;2023-05-14T01:28:08;99416.97;;;12.05;nan
63556;BME280;49700;48.072;7.800;2023-05-14T01:30:40;99422.97;;;12.07;nan
63556;BME280;49700;48.072;7.800;2023-05-14T01:33:10;99416.53;;;12.11;nan
63556;BME280;49700;48.072;7.800;2023-05-14T01:35:38;99412.72;;;12.15;nan
63556;BME280;49700;48.072;7.800;2023-05-14T01:38:06;99412.50;;;12.18;nan
63556;BME280;49700;48.072;7.800;2023-05-14T01:40:32;99412.28;;;12.22;nan
63556;BME280;49700;48.072;7.800;2023-05-14T01:42:59;99418.03;;;12.27;nan
63556;BME280;49700;48.072;7.800;2023-05-14T01:45:25;99409.69;;;12.33;nan
63556;BME280;49700;48.072;7.800;2023-05-14T01:47:50;99417.56;;;12.33;nan
63556;BME280;49700;48.072;7.800;2023-05-14T01:50:16;99408.94;;;12.31;nan
63556;BME280;49700;48.072;7.800;2023-05-14T01:52:41;99410.66;;;12.32;nan
63556;BME280;49700;48.072;7.800;2023-05-14T01:55:07;99422.75;;;12.34;nan
63556;BME280;49700;48.072;7.800;2023-05-14T01:57:33;99414.63;;;12.37;nan
63556;BME280;49700;48.072;7.800;2023-05-14T01:59:58;99418.69;;;12.42;nan
63556;BME280;49700;48.072;7.800;2023-05-14T02:02:23;99418.44;;;12.45;nan
63556;BME280;49700;48.072;7.800;2023-05-14T02:04:49;99409.38;;;12.49;nan
63556;BME280;49700;48.072;7.800;2023-05-14T02:07:14;99418.03;;;12.51;nan
63556;BME280;49700;48.072;7.800;2023-05-14T02:09:40;99411.78;;;12.52;nan
63556;BME280;49700;48.072;7.800;2023-05-14T02:12:07;99411.91;;;12.50;nan
63556;BME280;49700;48.072;7.800;2023-05-14T02:14:33;99412.25;;;12.46;nan
63556;BME280;49700;48.072;7.800;2023-05-14T02:16:58;99415.13;;;12.43;nan
63556;BME280;49700;48.072;7.800;2023-05-14T02:19:24;99415.22;;;12.41;nan
63556;BME280;49700;48.072;7.800;2023-05-14T02:21:49;99416.19;;;12.40;nan
63556;BME280;49700;48.072;7.800;2023-05-14T02:24:15;99413.41;;;12.42;nan
63556;BME280;49700;48.072;7.800;2023-05-14T02:26:40;99408.97;;;12.42;nan
63556;BME280;49700;48.072;7.800;2023-05-14T02:29:06;99411.41;;;12.45;nan
63556;BME280;49700;48.072;7.800;2023-05-14T02:31:32;99404.94;;;12.49;nan
63556;BME280;49700;48.072;7.800;2023-05-14T02:33:57;99406.19;;;12.56;nan
63556;BME280;49700;48.072;7.800;2023-05-14T02:36:23;99405.25;;;12.69;nan
63556;BME280;49700;48.072;7.800;2023-05-14T02:38:48;99397.97;;;12.72;nan
63556;BME280;49700;48.072;7.800;2023-05-14T02:41:13;99398.66;;;12.74;nan
63556;BME280;49700;48.072;7.800;2023-05-14T02:43:39;99407.19;;;12.78;nan
63556;BME280;49700;48.072;7.800;2023-05-14T02:46:06;99394.00;;;12.78;nan
63556;BME280;49700;48.072;7.800;2023-05-14T02:48:32;99400.13;;;12.78;nan
63556;BME280;49700;48.072;7.800;2023-05-14T02:50:57;99399.16;;;12.79;nan
63556;BME280;49700;48.072;7.800;2023-05-14T02:53:23;99398.22;;;12.80;nan
63556;BME280;49700;48.072;7.800;2023-05-14T02:55:48;99403.09;;;12.74;nan
63556;BME280;49700;48.072;7.800;2023-05-14T02:58:13;99407.88;;;12.69;nan
63556;BME280;49700;48.072;7.800;2023-05-14T03:00:39;99404.63;;;12.65;nan
63556;BME280;49700;48.072;7.800;2023-05-14T03:03:04;99404.63;;;12.65;nan
63556;BME280;49700;48.072;7.800;2023-05-14T03:05:30;99404.31;;;12.70;nan
63556;BME280;49700;48.072;7.800;2023-05-14T03:07:55;99403.34;;;12.71;nan
63556;BME280;49700;48.072;7.800;2023-05-14T03:10:20;99392.78;;;12.71;nan
63556;BME280;49700;48.072;7.800;2023-05-14T03:12:46;99396.41;;;12.70;nan
63556;BME280;49700;48.072;7.800;2023-05-14T03:15:11;99396.50;;;12.68;nan
63556;BME280;49700;48.072;7.800;2023-05-14T03:17:37;99401.91;;;12.67;nan
63556;BME280;49700;48.072;7.800;2023-05-14T03:20:02;99397.56;;;12.66;nan
63556;BME280;49700;48.072;7.800;2023-05-14T03:22:28;99404.53;;;12.67;nan
63556;BME280;49700;48.072;7.800;2023-05-14T03:24:53;99400.19;;;12.66;nan
63556;BME280;49700;48.072;7.800;2023-05-14T03:27:19;99404.03;;;12.61;nan
63556;BME280;49700;48.072;7.800;2023-05-14T03:29:45;99399.22;;;12.55;nan
63556;BME280;49700;48.072;7.800;2023-05-14T03:32:10;99401.16;;;12.53;nan
63556;BME280;49700;48.072;7.800;2023-05-14T03:34:36;99399.44;;;12.52;nan
63556;BME280;49700;48.072;7.800;2023-05-14T03:37:01;99399.69;;;12.49;nan
63556;BME280;49700;48.072;7.800;2023-05-14T03:39:27;99397.53;;;12.54;nan
63556;BME280;49700;48.072;7.800;2023-05-14T03:41:52;99394.56;;;12.59;nan
63556;BME280;49700;48.072;7.800;2023-05-14T03:44:17;99393.59;;;12.60;nan
63556;BME280;49700;48.072;7.800;2023-05-14T03:46:43;99397.06;;;12.60;nan
63556;BME280;49700;48.072;7.800;2023-05-14T03:49:08;99385.34;;;12.65;nan
63556;BME280;49700;48.072;7.800;2023-05-14T03:51:34;99392.06;;;12.69;nan
63556;BME280;49700;48.072;7.800;2023-05-14T03:53:59;99392.78;;;12.71;nan
63556;BME280;49700;48.072;7.800;2023-05-14T03:56:26;99390.88;;;12.73;nan
63556;BME280;49700;48.072;7.800;2023-05-14T03:58:51;99391.47;;;12.76;nan
63556;BME280;49700;48.072;7.800;2023-05-14T04:01:17;99395.69;;;12.79;nan
63556;BME280;49700;48.072;7.800;2023-05-14T04:03:42;99408.28;;;12.87;nan
63556;BME280;49700;48.072;7.800;2023-05-14T04:06:08;99405.31;;;12.91;nan
63556;BME280;49700;48.072;7.800;2023-05-14T04:08:34;99408.03;;;12.90;nan
63556;BME280;49700;48.072;7.800;2023-05-14T04:10:59;99403.59;;;12.90;nan
63556;BME280;49700;48.072;7.800;2023-05-14T04:13:24;99408.63;;;12.93;nan
63556;BME280;49700;48.072;7.800;2023-05-14T04:15:50;99402.44;;;12.94;nan
63556;BME280;49700;48.072;7.800;2023-05-14T04:18:15;99405.91;;;12.95;nan
63556;BME280;49700;48.072;7.800;2023-05-14T04:20:41;99405.06;;;12.94;nan
63556;BME280;49700;48.072;7.800;2023-05-14T04:23:07;99402.66;;;12.91;nan
63556;BME280;49700;48.072;7.800;2023-05-14T04:25:32;99400.13;;;12.90;nan
63556;BME280;49700;48.072;7.800;2023-05-14T04:27:57;99403.84;;;12.87;nan
63556;BME280;49700;48.072;7.800;2023-05-14T04:30:23;99408.19;;;12.88;nan
63556;BME280;49700;48.072;7.800;2023-05-14T04:32:48;99403.38;;;12.93;nan
63556;BME280;49700;48.072;7.800;2023-05-14T04:35:14;99406.72;;;12.95;nan
63556;BME280;49700;48.072;7.800;2023-05-14T04:37:39;99406.00;;;12.93;nan
63556;BME280;49700;48.072;7.800;2023-05-14T04:40:06;99410.56;;;12.91;nan
63556;BME280;49700;48.072;7.800;2023-05-14T04:42:32;99409.72;;;12.91;nan
63556;BME280;49700;48.072;7.800;2023-05-14T04:44:58;99410.56;;;12.91;nan
63556;BME280;49700;48.072;7.800;2023-05-14T04:47:23;99406.97;;;12.92;nan
63556;BME280;49700;48.072;7.800;2023-05-14T04:49:49;99404.22;;;12.94;nan
63556;BME280;49700;48.072;7.800;2023-05-14T04:52:14;99404.34;;;12.92;nan
63556;BME280;49700;48.072;7.800;2023-05-14T04:54:40;99408.03;;;12.90;nan
63556;BME280;49700;48.072;7.800;2023-05-14T04:57:05;99407.94;;;12.91;nan
63556;BME280;49700;48.072;7.800;2023-05-14T04:59:31;99405.91;;;12.95;nan
63556;BME280;49700;48.072;7.800;2023-05-14T05:01:56;99413.56;;;12.98;nan
63556;BME280;49700;48.072;7.800;2023-05-14T05:04:22;99411.75;;;12.98;nan
63556;BME280;49700;48.072;7.800;2023-05-14T05:06:49;99415.38;;;12.97;nan
63556;BME280;49700;48.072;7.800;2023-05-14T05:09:14;99409.03;;;13.00;nan
63556;BME280;49700;48.072;7.800;2023-05-14T05:11:40;99408.88;;;13.01;nan
63556;BME280;49700;48.072;7.800;2023-05-14T05:14:06;99407.13;;;13.02;nan
63556;BME280;49700;48.072;7.800;2023-05-14T05:16:31;99404.09;;;13.06;nan
63556;BME280;49700;48.072;7.800;2023-05-14T05:18:56;99407.38;;;13.10;nan
63556;BME280;49700;48.072;7.800;2023-05-14T05:21:22;99408.06;;;13.12;nan
63556;BME280;49700;48.072;7.800;2023-05-14T05:23:47;99413.97;;;13.16;nan
63556;BME280;49700;48.072;7.800;2023-05-14T05:26:13;99419.72;;;13.21;nan
63556;BME280;49700;48.072;7.800;2023-05-14T05:28:38;99422.34;;;13.21;nan
63556;BME280;49700;48.072;7.800;2023-05-14T05:31:04;99418.03;;;13.20;nan
63556;BME280;49700;48.072;7.800;2023-05-14T05:33:29;99418.75;;;13.22;nan
63556;BME280;49700;48.072;7.800;2023-05-14T05:35:55;99420.81;;;13.30;nan
63556;BME280;49700;48.072;7.800;2023-05-14T05:38:20;99420.94;;;13.28;nan
63556;BME280;49700;48.072;7.800;2023-05-14T05:40:46;99415.56;;;13.30;nan
63556;BME280;49700;48.072;7.800;2023-05-14T05:43:13;99422.88;;;13.37;nan
63556;BME280;49700;48.072;7.800;2023-05-14T05:45:38;99415.91;;;13.47;nan
63556;BME280;49700;48.072;7.800;2023-05-14T05:48:04;99418.41;;;13.60;nan
63556;BME280;49700;48.072;7.800;2023-05-14T05:50:29;99411.34;;;13.72;nan
63556;BME280;49700;48.072;7.800;2023-05-14T05:52:56;99419.22;;;13.83;nan
63556;BME280;49700;48.072;7.800;2023-05-14T05:55:23;99414.03;;;13.93;nan
63556;BME280;49700;48.072;7.800;2023-05-14T05:57:49;99417.88;;;14.00;nan
63556;BME280;49700;48.072;7.800;2023-05-14T06:00:14;99414.88;;;14.05;nan
63556;BME280;49700;48.072;7.800;2023-05-14T06:02:41;99417.25;;;14.08;nan
63556;BME280;49700;48.072;7.800;2023-05-14T06:05:08;99417.56;;;14.14;nan
63556;BME280;49700;48.072;7.800;2023-05-14T06:07:34;99416.22;;;14.20;nan
63556;BME280;49700;48.072;7.800;2023-05-14T06:10:00;99416.69;;;14.25;nan
63556;BME280;49700;48.072;7.800;2023-05-14T06:12:25;99425.94;;;14.31;nan
63556;BME280;49700;48.072;7.800;2023-05-14T06:14:53;99418.72;;;14.33;nan
63556;BME280;49700;48.072;7.800;2023-05-14T06:17:20;99426.38;;;14.36;nan
63556;BME280;49700;48.072;7.800;2023-05-14T06:19:45;99416.66;;;14.36;nan
63556;BME280;49700;48.072;7.800;2023-05-14T06:22:12;99416.66;;;14.36;nan
63556;BME280;49700;48.072;7.800;2023-05-14T06:24:38;99420.00;;;14.38;nan
63556;BME280;49700;48.072;7.800;2023-05-14T06:27:04;99420.84;;;14.39;nan
63556;BME280;49700;48.072;7.800;2023-05-14T06:29:29;99413.53;;;14.43;nan
63556;BME280;49700;48.072;7.800;2023-05-14T06:32:00;99412.91;;;14.50;nan
63556;BME280;49700;48.072;7.800;2023-05-14T06:34:25;99415.78;;;14.58;nan
63556;BME280;49700;48.072;7.800;2023-05-14T06:36:50;99412.47;;;14.66;nan
63556;BME280;49700;48.072;7.800;2023-05-14T06:39:16;99422.47;;;14.83;nan
63556;BME280;49700;48.072;7.800;2023-05-14T06:41:41;99408.44;;;15.14;nan
63556;BME280;49700;48.072;7.800;2023-05-14T06:44:12;99408.78;;;15.61;nan
63556;BME280;49700;48.072;7.800;2023-05-14T06:46:38;99401.41;;;16.24;nan
63556;BME280;49700;48.072;7.800;2023-05-14T06:49:03;99395.75;;;17.05;nan
63556;BME280;49700;48.072;7.800;2023-05-14T06:51:29;99395.69;;;17.52;nan
63556;BME280;49700;48.072;7.800;2023-05-14T06:53:54;99391.56;;;17.67;nan
63556;BME280;49700;48.072;7.800;2023-05-14T06:56:21;99393.69;;;17.64;nan
63556;BME280;49700;48.072;7.800;2023-05-14T06:58:47;99401.09;;;17.60;nan
63556;BME280;49700;48.072;7.800;2023-05-14T07:01:12;99398.59;;;17.59;nan
63556;BME280;49700;48.072;7.800;2023-05-14T07:03:38;99394.44;;;17.56;nan
63556;BME280;49700;48.072;7.800;2023-05-14T07:06:03;99393.19;;;17.51;nan
63556;BME280;49700;48.072;7.800;2023-05-14T07:08:28;99399.13;;;17.35;nan
63556;BME280;49700;48.072;7.800;2023-05-14T07:10:54;99403.22;;;17.29;nan
63556;BME280;49700;48.072;7.800;2023-05-14T07:13:20;99393.41;;;17.30;nan
63556;BME280;49700;48.072;7.800;2023-05-14T07:15:45;99392.59;;;17.29;nan
63556;BME280;49700;48.072;7.800;2023-05-14T07:18:11;99400.84;;;17.26;nan
63556;BME280;49700;48.072;7.800;2023-05-14T07:20:36;99403.50;;;17.26;nan
63556;BME280;49700;48.072;7.800;2023-05-14T07:23:01;99400.16;;;17.24;nan
63556;BME280;49700;48.072;7.800;2023-05-14T07:25:27;99390.22;;;17.26;nan
63556;BME280;49700;48.072;7.800;2023-05-14T07:27:52;99390.06;;;17.28;nan
63556;BME280;49700;48.072;7.800;2023-05-14T07:30:18;99392.88;;;17.26;nan
63556;BME280;49700;48.072;7.800;2023-05-14T07:32:43;99389.66;;;17.22;nan
63556;BME280;49700;48.072;7.800;2023-05-14T07:35:09;99386.88;;;17.24;nan
63556;BME280;49700;48.072;7.800;2023-05-14T07:37:36;99391.75;;;17.29;nan
63556;BME280;49700;48.072;7.800;2023-05-14T07:40:01;99394.25;;;17.30;nan
63556;BME280;49700;48.072;7.800;2023-05-14T07:42:27;99388.13;;;17.30;nan
63556;BME280;49700;48.072;7.800;2023-05-14T07:44:52;99390.91;;;17.28;nan
63556;BME280;49700;48.072;7.800;2023-05-14T07:47:18;99387.28;;;17.29;nan
63556;BME280;49700;48.072;7.800;2023-05-14T07:49:43;99385.84;;;17.35;nan
63556;BME280;49700;48.072;7.800;2023-05-14T07:52:08;99387.38;;;17.37;nan
63556;BME280;49700;48.072;7.800;2023-05-14T07:54:34;99383.31;;;17.43;nan
63556;BME280;49700;48.072;7.800;2023-05-14T07:56:59;99379.53;;;17.45;nan
63556;BME280;49700;48.072;7.800;2023-05-14T07:59:25;99382.72;;;17.49;nan
63556;BME280;49700;48.072;7.800;2023-05-14T08:01:50;99384.34;;;17.60;nan
63556;BME280;49700;48.072;7.800;2023-05-14T08:04:15;99385.22;;;17.78;nan
63556;BME280;49700;48.072;7.800;2023-05-14T08:06:42;99383.66;;;18.03;nan
63556;BME280;49700;48.072;7.800;2023-05-14T08:09:07;99393.19;;;18.24;nan
63556;BME280;49700;48.072;7.800;2023-05-14T08:11:33;99385.50;;;18.39;nan
63556;BME280;49700;48.072;7.800;2023-05-14T08:13:59;99386.31;;;18.57;nan
63556;BME280;49700;48.072;7.800;2023-05-14T08:16:24;99380.47;;;18.71;nan
63556;BME280;49700;48.072;7.800;2023-05-14T08:18:50;99379.22;;;18.84;nan
63556;BME280;49700;48.072;7.800;2023-05-14T08:21:15;99380.94;;;18.93;nan
63556;BME280;49700;48.072;7.800;2023-05-14T08:23:41;99369.03;;;19.05;nan
63556;BME280;49700;48.072;7.800;2023-05-14T08:26:07;99371.03;;;19.03;nan
63556;BME280;49700;48.072;7.800;2023-05-14T08:28:35;99368.41;;;19.11;nan
63556;BME280;49700;48.072;7.800;2023-05-14T08:31:00;99365.75;;;19.11;nan
63556;BME280;49700;48.072;7.800;2023-05-14T08:33:26;99360.59;;;19.10;nan
63556;BME280;49700;48.072;7.800;2023-05-14T08:35:52;99355.41;;;19.08;nan
63556;BME280;49700;48.072;7.800;2023-05-14T08:38:17;99362.06;;;19.04;nan
63556;BME280;49700;48.072;7.800;2023-05-14T08:40:55;99357.31;;;18.90;nan
63556;BME280;49700;48.072;7.800;2023-05-14T08:43:27;99350.84;;;18.92;nan
63556;BME280;49700;48.072;7.800;2023-05-14T08:45:57;99351.53;;;18.94;nan
63556;BME280;49700;48.072;7.800;2023-05-14T08:48:28;99343.75;;;19.01;nan
63556;BME280;49700;48.072;7.800;2023-05-14T08:50:56;99352.94;;;19.07;nan
63556;BME280;49700;48.072;7.800;2023-05-14T08:53:23;99339.47;;;19.16;nan
63556;BME280;49700;48.072;7.800;2023-05-14T08:55:50;99342.03;;;19.26;nan
63556;BME280;49700;48.072;7.800;2023-05-14T08:58:15;99332.59;;;19.40;nan
63556;BME280;49700;48.072;7.800;2023-05-14T09:00:41;99329.66;;;19.59;nan
63556;BME280;49700;48.072;7.800;2023-05-14T09:03:11;99330.38;;;19.70;nan
63556;BME280;49700;48.072;7.800;2023-05-14T09:05:38;99328.06;;;19.66;nan
63556;BME280;49700;48.072;7.800;2023-05-14T09:08:04;99330.72;;;19.66;nan
63556;BME280;49700;48.072;7.800;2023-05-14T09:10:30;99323.06;;;19.72;nan
63556;BME280;49700;48.072;7.800;2023-05-14T09:12:56;99314.41;;;19.78;nan
63556;BME280;49700;48.072;7.800;2023-05-14T09:15:22;99318.13;;;19.93;nan
63556;BME280;49700;48.072;7.800;2023-05-14T09:17:48;99317.44;;;20.07;nan
63556;BME280;49700;48.072;7.800;2023-05-14T09:20:14;99315.94;;;20.13;nan
63556;BME280;49700;48.072;7.800;2023-05-14T09:22:41;99314.78;;;20.16;nan
63556;BME280;49700;48.072;7.800;2023-05-14T09:25:08;99311.44;;;20.22;nan
63556;BME280;49700;48.072;7.800;2023-05-14T09:27:35;99310.28;;;20.24;nan
63556;BME280;49700;48.072;7.800;2023-05-14T09:30:18;99301.78;;;20.29;nan
63556;BME280;49700;48.072;7.800;2023-05-14T09:32:44;99310.13;;;20.34;nan
63556;BME280;49700;48.072;7.800;2023-05-14T09:35:19;99303.09;;;20.41;nan
63556;BME280;49700;48.072;7.800;2023-05-14T09:37:47;99302.47;;;20.55;nan
63556;BME280;49700;48.072;7.800;2023-05-14T09:40:13;99296.25;;;20.71;nan
63556;BME280;49700;48.072;7.800;2023-05-14T09:42:39;99295.88;;;20.91;nan
63556;BME280;49700;48.072;7.800;2023-05-14T09:45:07;99290.81;;;21.04;nan
63556;BME280;49700;48.072;7.800;2023-05-14T09:47:32;99292.75;;;21.18;nan
63556;BME280;49700;48.072;7.800;2023-05-14T09:49:58;99291.19;;;21.40;nan
63556;BME280;49700;48.072;7.800;2023-05-14T09:52:23;99293.44;;;21.52;nan
63556;BME280;49700;48.072;7.800;2023-05-14T09:54:51;99296.38;;;21.65;nan
63556;BME280;49700;48.072;7.800;2023-05-14T09:57:16;99294.97;;;21.77;nan
63556;BME280;49700;48.072;7.800;2023-05-14T09:59:42;99297.28;;;21.80;nan
63556;BME280;49700;48.072;7.800;2023-05-14T10:02:23;99296.50;;;21.95;nan
63556;BME280;49700;48.072;7.800;2023-05-14T10:04:51;99279.22;;;22.05;nan
63556;BME280;49700;48.072;7.800;2023-05-14T10:07:21;99281.34;;;21.87;nan
63556;BME280;49700;48.072;7.800;2023-05-14T10:09:47;99285.53;;;21.67;nan
63556;BME280;49700;48.072;7.800;2023-05-14T10:12:15;99279.88;;;21.61;nan
63556;BME280;49700;48.072;7.800;2023-05-14T10:14:47;99278.91;;;21.54;nan
63556;BME280;49700;48.072;7.800;2023-05-14T10:17:16;99278.47;;;21.42;nan
63556;BME280;49700;48.072;7.800;2023-05-14T10:19:46;99277.88;;;21.24;nan
63556;BME280;49700;48.072;7.800;2023-05-14T10:22:16;99280.44;;;21.09;nan
63556;BME280;49700;48.072;7.800;2023-05-14T10:24:43;99277.50;;;20.96;nan
63556;BME280;49700;48.072;7.800;2023-05-14T10:27:10;99283.84;;;20.87;nan
63556;BME280;49700;48.072;7.800;2023-05-14T10:29:36;99273.38;;;20.85;nan
63556;BME280;49700;48.072;7.800;2023-05-14T10:32:07;99273.53;;;20.84;nan
63556;BME280;49700;48.072;7.800;2023-05-14T10:34:37;99270.53;;;20.78;nan
63556;BME280;49700;48.072;7.800;2023-05-14T10:37:19;99263.19;;;20.81;nan
63556;BME280;49700;48.072;7.800;2023-05-14T10:39:47;99258.66;;;20.89;nan
63556;BME280;49700;48.072;7.800;2023-05-14T10:42:17;99248.25;;;21.03;nan
63556;BME280;49700;48.072;7.800;2023-05-14T10:44:49;99257.56;;;21.15;nan
63556;BME280;49700;48.072;7.800;2023-05-14T10:47:15;99255.88;;;21.14;nan
63556;BME280;49700;48.072;7.800;2023-05-14T10:49:43;99250.56;;;21.06;nan
63556;BME280;49700;48.072;7.800;2023-05-14T10:52:10;99244.91;;;21.00;nan
63556;BME280;49700;48.072;7.800;2023-05-14T10:54:36;99239.41;;;21.02;nan
63556;BME280;49700;48.072;7.800;2023-05-14T10:57:02;99240.25;;;21.03;nan
63556;BME280;49700;48.072;7.800;2023-05-14T10:59:28;99245.94;;;20.99;nan
63556;BME280;49700;48.072;7.800;2023-05-14T11:01:55;99241.34;;;20.85;nan
63556;BME280;49700;48.072;7.800;2023-05-14T11:04:26;99237.53;;;20.80;nan
63556;BME280;49700;48.072;7.800;2023-05-14T11:06:52;99233.69;;;20.74;nan
63556;BME280;49700;48.072;7.800;2023-05-14T11:09:19;99230.53;;;20.70;nan
63556;BME280;49700;48.072;7.800;2023-05-14T11:11:45;99228.53;;;20.72;nan
63556;BME280;49700;48.072;7.800;2023-05-14T11:14:12;99226.00;;;20.71;nan
63556;BME280;49700;48.072;7.800;2023-05-14T11:16:38;99240.25;;;20.63;nan
63556;BME280;49700;48.072;7.800;2023-05-14T11:19:03;99236.22;;;20.51;nan
63556;BME280;49700;48.072;7.800;2023-05-14T11:21:29;99235.09;;;20.29;nan
63556;BME280;49700;48.072;7.800;2023-05-14T11:23:58;99240.81;;;20.09;nan
63556;BME280;49700;48.072;7.800;2023-05-14T11:26:23;99236.47;;;19.92;nan
63556;BME280;49700;48.072;7.800;2023-05-14T11:28:49;99238.63;;;19.80;nan
63556;BME280;49700;48.072;7.800;2023-05-14T11:31:14;99241.09;;;19.74;nan
63556;BME280;49700;48.072;7.800;2023-05-14T11:33:40;99231.78;;;19.70;nan
63556;BME280;49700;48.072;7.800;2023-05-14T11:36:06;99238.75;;;19.62;nan
63556;BME280;49700;48.072;7.800;2023-05-14T11:38:31;99241.38;;;19.54;nan
63556;BME280;49700;48.072;7.800;2023-05-14T11:40:58;99236.06;;;19.54;nan
63556;BME280;49700;48.072;7.800;2023-05-14T11:43:24;99234.91;;;19.57;nan
63556;BME280;49700;48.072;7.800;2023-05-14T11:45:53;99226.25;;;19.63;nan
63556;BME280;49700;48.072;7.800;2023-05-14T11:48:19;99224.81;;;19.69;nan
63556;BME280;49700;48.072;7.800;2023-05-14T11:50:51;99221.13;;;19.78;nan
63556;BME280;49700;48.072;7.800;2023-05-14T11:53:24;99222.47;;;19.90;nan
63556;BME280;49700;48.072;7.800;2023-05-14T11:55:51;99221.13;;;20.02;nan
63556;BME280;49700;48.072;7.800;2023-05-14T11:58:18;99221.78;;;20.13;nan
63556;BME280;49700;48.072;7.800;2023-05-14T12:00:44;99208.44;;;20.21;nan
63556;BME280;49700;48.072;7.800;2023-05-14T12:03:10;99208.09;;;20.32;nan
63556;BME280;49700;48.072;7.800;2023-05-14T12:05:38;99203.19;;;20.52;nan
63556;BME280;49700;48.072;7.800;2023-05-14T12:08:21;99187.50;;;20.65;nan
63556;BME280;49700;48.072;7.800;2023-05-14T12:10:47;99188.16;;;20.67;nan
63556;BME280;49700;48.072;7.800;2023-05-14T12:13:14;99182.28;;;20.80;nan
63556;BME280;49700;48.072;7.800;2023-05-14T12:15:44;99183.50;;;21.00;nan
63556;BME280;49700;48.072;7.800;2023-05-14T12:18:09;99179.88;;;21.25;nan
63556;BME280;49700;48.072;7.800;2023-05-14T12:20:35;99180.97;;;21.38;nan
63556;BME280;49700;48.072;7.800;2023-05-14T12:23:00;99174.34;;;21.26;nan
63556;BME280;49700;48.072;7.800;2023-05-14T12:25:26;99174.16;;;21.28;nan
63556;BME280;49700;48.072;7.800;2023-05-14T12:27:51;99175.47;;;21.32;nan
63556;BME280;49700;48.072;7.800;2023-05-14T12:30:16;99167.59;;;21.38;nan
63556;BME280;49700;48.072;7.800;2023-05-14T12:32:42;99163.53;;;21.51;nan
63556;BME280;49700;48.072;7.800;2023-05-14T12:35:08;99179.41;;;21.52;nan
63556;BME280;49700;48.072;7.800;2023-05-14T12:37:33;99167.44;;;21.40;nan
63556;BME280;49700;48.072;7.800;2023-05-14T12:40:00;99167.63;;;21.30;nan
63556;BME280;49700;48.072;7.800;2023-05-14T12:42:26;99168.34;;;21.24;nan
63556;BME280;49700;48.072;7.800;2023-05-14T12:44:51;99169.06;;;21.18;nan
63556;BME280;49700;48.072;7.800;2023-05-14T12:47:17;99175.03;;;20.97;nan
63556;BME280;49700;48.072;7.800;2023-05-14T12:49:42;99184.03;;;20.48;nan
63556;BME280;49700;48.072;7.800;2023-05-14T12:52:07;99181.13;;;20.02;nan
63556;BME280;49700;48.072;7.800;2023-05-14T12:54:33;99185.09;;;19.57;nan
63556;BME280;49700;48.072;7.800;2023-05-14T12:56:58;99177.94;;;19.33;nan
63556;BME280;49700;48.072;7.800;2023-05-14T12:59:24;99179.03;;;19.06;nan
63556;BME280;49700;48.072;7.800;2023-05-14T13:01:49;99178.19;;;18.97;nan
63556;BME280;49700;48.072;7.800;2023-05-14T13:04:14;99176.19;;;18.91;nan
63556;BME280;49700;48.072;7.800;2023-05-14T13:06:40;99176.81;;;18.77;nan
63556;BME280;49700;48.072;7.800;2023-05-14T13:09:06;99172.94;;;18.71;nan
63556;BME280;49700;48.072;7.800;2023-05-14T13:11:32;99172.81;;;18.81;nan
63556;BME280;49700;48.072;7.800;2023-05-14T13:13:58;99175.34;;;18.91;nan
63556;BME280;49700;48.072;7.800;2023-05-14T13:16:27;99167.53;;;18.89;nan
63556;BME280;49700;48.072;7.800;2023-05-14T13:18:53;99172.19;;;18.95;nan